Time;durP1;ratioP1;P1;durP2;ratioP2;P2;SDS_P1;SDS_P2;PMS_P1;PMS_P2;Temp;Humidity;BMP_temperature;BMP_pressure;BME280_temperature;BME280_humidity;BME280_pressure;Samples;Min_cycle;Max_cycle;Signal;HPM_P1;HPM_P2
2023/11/09 00:01:21;;;;;;;2.58;1.08;;;;;;;11.63;100.00;100239.25;5258494;28;20039;-73
2023/11/09 00:03:52;;;;;;;4.22;1.13;;;;;;;11.79;100.00;100241.72;5247901;28;20016;-72
2023/11/09 00:06:23;;;;;;;1.65;1.10;;;;;;;11.89;100.00;100239.59;5251751;28;20034;-73
2023/11/09 00:08:53;;;;;;;3.55;1.10;;;;;;;11.76;100.00;100227.84;5260059;28;20365;-72
2023/11/09 00:11:24;;;;;;;2.95;1.02;;;;;;;11.72;100.00;100231.94;5256087;28;20107;-72
2023/11/09 00:13:55;;;;;;;1.00;0.88;;;;;;;11.65;100.00;100227.31;5257994;28;20020;-73
2023/11/09 00:16:25;;;;;;;3.47;1.42;;;;;;;11.77;100.00;100218.78;5257522;28;20073;-73
2023/11/09 00:18:57;;;;;;;1.92;1.52;;;;;;;11.80;100.00;100218.41;5251094;28;20388;-73
2023/11/09 00:21:27;;;;;;;2.88;1.40;;;;;;;11.80;100.00;100223.78;5266612;28;20121;-73
2023/11/09 00:23:58;;;;;;;3.45;1.30;;;;;;;11.76;100.00;100217.09;5258746;28;20485;-72
2023/11/09 00:26:29;;;;;;;4.85;1.40;;;;;;;11.75;100.00;100216.28;5260247;28;20107;-73
2023/11/09 00:29:00;;;;;;;3.20;1.10;;;;;;;11.71;100.00;100211.47;5258651;28;20048;-73
2023/11/09 00:31:30;;;;;;;4.88;1.70;;;;;;;11.68;100.00;100209.97;5256193;28;20107;-72
2023/11/09 00:34:03;;;;;;;8.90;1.63;;;;;;;11.55;100.00;100199.94;5262583;28;20020;-73
2023/11/09 00:36:34;;;;;;;3.22;1.33;;;;;;;11.56;100.00;100201.59;5255280;28;20028;-74
2023/11/09 00:39:06;;;;;;;4.38;1.52;;;;;;;11.58;100.00;100191.47;5258213;28;20473;-73
2023/11/09 00:41:37;;;;;;;7.10;1.88;;;;;;;11.67;100.00;100186.81;5254203;28;20032;-74
2023/11/09 00:44:08;;;;;;;4.13;1.60;;;;;;;11.64;100.00;100182.66;5256845;28;20583;-74
2023/11/09 00:46:40;;;;;;;2.72;1.65;;;;;;;11.46;100.00;100181.41;5254628;28;20429;-73
2023/11/09 00:49:10;;;;;;;2.92;1.27;;;;;;;11.44;100.00;100181.59;5254033;28;20409;-73
2023/11/09 00:51:41;;;;;;;4.40;1.60;;;;;;;11.37;100.00;100180.69;5259303;28;20031;-74
2023/11/09 00:54:11;;;;;;;3.53;1.77;;;;;;;11.35;100.00;100182.72;5261276;28;20359;-73
2023/11/09 00:56:42;;;;;;;3.40;1.55;;;;;;;11.40;100.00;100172.25;5253676;28;20082;-74
2023/11/09 00:59:12;;;;;;;4.05;1.52;;;;;;;11.46;100.00;100170.66;5258170;28;20035;-74
2023/11/09 01:01:43;;;;;;;2.15;1.42;;;;;;;11.45;100.00;100166.31;5254100;28;20085;-74
2023/11/09 01:04:13;;;;;;;5.97;1.77;;;;;;;11.46;100.00;100174.19;5253266;28;20032;-74
2023/11/09 01:06:44;;;;;;;2.92;1.77;;;;;;;11.41;100.00;100166.69;5258338;28;20431;-74
2023/11/09 01:09:17;;;;;;;6.25;1.77;;;;;;;11.47;100.00;100170.47;5250220;28;20486;-73
2023/11/09 01:11:48;;;;;;;6.30;2.00;;;;;;;11.54;100.00;100171.38;5261148;28;20035;-74
2023/11/09 01:14:20;;;;;;;2.35;1.65;;;;;;;11.47;100.00;100164.28;5253275;28;20031;-74
2023/11/09 01:16:50;;;;;;;2.20;1.70;;;;;;;11.50;100.00;100155.84;5252932;28;20060;-73
2023/11/09 01:19:21;;;;;;;7.78;2.03;;;;;;;11.56;100.00;100158.59;5258001;28;20445;-73
2023/11/09 01:21:51;;;;;;;2.85;1.77;;;;;;;11.56;100.00;100155.91;5254273;28;20370;-73
2023/11/09 01:24:22;;;;;;;5.18;2.20;;;;;;;11.60;100.00;100156.38;5258017;28;20540;-73
2023/11/09 01:26:52;;;;;;;5.80;1.98;;;;;;;11.61;100.00;100147.28;5261266;28;20396;-73
2023/11/09 01:29:23;;;;;;;4.13;1.98;;;;;;;11.56;100.00;100147.03;5256506;28;20028;-73
2023/11/09 01:31:54;;;;;;;4.63;1.98;;;;;;;11.68;100.00;100130.19;5258603;28;20028;-73
2023/11/09 01:34:25;;;;;;;6.05;2.17;;;;;;;11.73;100.00;100137.69;5255044;28;20020;-73
2023/11/09 01:36:55;;;;;;;3.45;1.83;;;;;;;11.72;100.00;100137.91;5261756;28;20085;-73
2023/11/09 01:39:27;;;;;;;6.28;2.30;;;;;;;11.65;100.00;100140.53;5255006;28;20048;-73
2023/11/09 01:41:57;;;;;;;3.92;2.05;;;;;;;11.67;100.00;100133.09;5247656;28;20028;-73
2023/11/09 01:44:28;;;;;;;4.53;2.03;;;;;;;11.61;100.00;100132.00;5263503;28;20107;-73
2023/11/09 01:46:58;;;;;;;6.47;2.05;;;;;;;11.60;100.00;100127.66;5258638;28;20784;-73
2023/11/09 01:49:30;;;;;;;3.80;1.90;;;;;;;11.75;100.00;100132.97;5256449;28;20620;-73
2023/11/09 01:52:00;;;;;;;3.80;1.67;;;;;;;11.87;100.00;100122.56;5244560;28;20035;-73
2023/11/09 01:54:33;;;;;;;4.32;1.90;;;;;;;11.97;100.00;100128.47;5254222;28;20648;-73
2023/11/09 01:57:05;;;;;;;8.45;2.55;;;;;;;11.96;100.00;100125.97;5257179;28;20020;-73
2023/11/09 01:59:39;;;;;;;4.10;2.00;;;;;;;11.99;100.00;100117.50;5256838;28;20036;-73
2023/11/09 02:02:09;;;;;;;4.28;2.03;;;;;;;11.98;100.00;100116.66;5265208;28;20031;-73
2023/11/09 02:04:40;;;;;;;4.30;2.05;;;;;;;11.97;100.00;100123.09;5258731;28;20035;-73
2023/11/09 02:07:11;;;;;;;6.25;2.00;;;;;;;11.95;100.00;100114.38;5260272;28;20069;-73
2023/11/09 02:10:03;;;;;;;4.95;2.00;;;;;;;11.99;100.00;100112.97;5256797;28;20120;-74
2023/11/09 02:12:34;;;;;;;7.75;2.25;;;;;;;11.97;100.00;100119.56;5251122;28;20023;-73
2023/11/09 02:15:05;;;;;;;5.93;2.40;;;;;;;11.95;100.00;100124.28;5255163;28;20389;-73
2023/11/09 02:17:37;;;;;;;8.85;2.47;;;;;;;11.97;100.00;100124.94;5254691;28;20540;-74
2023/11/09 02:20:13;;;;;;;4.72;2.47;;;;;;;12.04;100.00;100117.75;5252408;28;20100;-73
2023/11/09 02:22:54;;;;;;;7.22;2.35;;;;;;;12.03;100.00;100119.63;5258540;28;20524;-73
2023/11/09 02:25:26;;;;;;;7.82;2.70;;;;;;;12.04;100.00;100112.38;5262822;28;20024;-74
2023/11/09 02:28:09;;;;;;;3.78;2.55;;;;;;;11.93;100.00;100117.25;5259953;28;20061;-73
2023/11/09 02:30:59;;;;;;;6.80;2.63;;;;;;;11.87;100.00;100123.41;5251760;28;20025;-73
2023/11/09 02:33:29;;;;;;;5.90;2.65;;;;;;;11.97;100.00;100115.00;5249909;28;20085;-73
2023/11/09 02:36:20;;;;;;;9.68;2.65;;;;;;;11.98;100.00;100122.06;5252663;28;20066;-73
2023/11/09 02:38:51;;;;;;;10.65;2.72;;;;;;;12.00;100.00;100119.16;5253836;28;20513;-73
2023/11/09 02:41:22;;;;;;;6.72;2.78;;;;;;;11.95;100.00;100113.53;5262910;27;20459;-74
2023/11/09 02:43:52;;;;;;;7.22;2.83;;;;;;;11.98;100.00;100110.47;5260610;28;20624;-74
2023/11/09 02:46:23;;;;;;;6.25;3.10;;;;;;;12.02;100.00;100104.50;5256874;28;20037;-73
2023/11/09 02:48:53;;;;;;;8.82;3.30;;;;;;;11.96;100.00;100102.59;5259939;28;20489;-73
2023/11/09 02:51:23;;;;;;;7.03;3.08;;;;;;;12.00;100.00;100103.03;5259625;28;20112;-73
2023/11/09 02:53:54;;;;;;;11.52;2.67;;;;;;;12.00;100.00;100103.88;5256753;28;20111;-73
2023/11/09 02:56:25;;;;;;;8.98;2.90;;;;;;;11.98;100.00;100099.72;5250611;28;20024;-73
2023/11/09 02:58:56;;;;;;;6.93;3.15;;;;;;;12.01;100.00;100096.66;5251364;28;20470;-73
2023/11/09 03:01:26;;;;;;;6.05;3.00;;;;;;;12.03;100.00;100099.97;5257647;28;20082;-74
2023/11/09 03:03:57;;;;;;;5.60;3.08;;;;;;;12.02;100.00;100088.38;5254289;28;20110;-73
2023/11/09 03:06:28;;;;;;;6.85;2.95;;;;;;;12.10;100.00;100090.13;5258926;28;20028;-74
2023/11/09 03:09:00;;;;;;;6.13;2.80;;;;;;;12.07;100.00;100082.44;5263695;28;20024;-73
2023/11/09 03:11:31;;;;;;;7.53;3.55;;;;;;;12.03;100.00;100084.66;5253474;28;20478;-73
2023/11/09 03:14:01;;;;;;;6.63;3.55;;;;;;;12.10;100.00;100079.38;5251110;28;20111;-73
2023/11/09 03:16:32;;;;;;;4.82;2.53;;;;;;;12.03;100.00;100092.72;5251018;28;20082;-73
2023/11/09 03:19:03;;;;;;;7.15;3.00;;;;;;;12.08;100.00;100087.59;5258157;28;20492;-73
2023/11/09 03:21:34;;;;;;;5.22;3.17;;;;;;;12.01;100.00;100102.03;5255364;28;20031;-74
2023/11/09 03:24:05;;;;;;;5.78;3.10;;;;;;;12.10;100.00;100096.31;5246403;28;20024;-73
2023/11/09 03:26:37;;;;;;;5.25;3.10;;;;;;;12.11;100.00;100097.16;5255723;28;20138;-73
2023/11/09 03:29:07;;;;;;;9.73;2.85;;;;;;;12.08;100.00;100113.66;5257855;28;20056;-73
2023/11/09 03:31:38;;;;;;;4.20;2.80;;;;;;;12.07;100.00;100099.38;5255802;28;20063;-74
2023/11/09 03:34:08;;;;;;;4.03;2.80;;;;;;;12.13;100.00;100095.91;5254927;28;20039;-73
2023/11/09 03:36:39;;;;;;;4.03;2.80;;;;;;;12.14;100.00;100102.94;5257507;28;20016;-73
2023/11/09 03:39:09;;;;;;;7.75;2.95;;;;;;;12.13;100.00;100095.09;5251418;28;20024;-73
2023/11/09 03:41:43;;;;;;;5.32;2.40;;;;;;;12.12;100.00;100104.19;5261402;28;20028;-74
2023/11/09 03:44:13;;;;;;;4.47;2.38;;;;;;;12.09;100.00;100101.88;5254751;28;20130;-74
2023/11/09 03:46:44;;;;;;;4.85;2.10;;;;;;;12.12;100.00;100104.19;5246127;28;20569;-73
2023/11/09 03:49:14;;;;;;;2.85;1.33;;;;;;;12.09;100.00;100108.06;5257017;28;20480;-74
2023/11/09 03:51:45;;;;;;;2.22;1.38;;;;;;;12.03;100.00;100106.16;5254867;28;20401;-74
2023/11/09 03:54:15;;;;;;;1.92;1.40;;;;;;;12.07;100.00;100103.94;5258508;28;20495;-74
2023/11/09 03:56:46;;;;;;;2.47;1.20;;;;;;;12.03;100.00;100105.34;5250048;28;20485;-74
2023/11/09 03:59:16;;;;;;;1.15;1.05;;;;;;;12.04;100.00;100113.22;5248958;28;20027;-74
2023/11/09 04:01:47;;;;;;;4.50;1.20;;;;;;;11.89;100.00;100107.91;5251077;28;20030;-73
2023/11/09 04:04:17;;;;;;;3.88;1.63;;;;;;;11.91;100.00;100113.09;5246890;28;20073;-74
2023/11/09 04:06:48;;;;;;;2.95;1.35;;;;;;;11.92;100.00;100118.28;5251287;28;20032;-73
2023/11/09 04:09:19;;;;;;;2.25;1.58;;;;;;;11.90;100.00;100122.19;5244846;28;20073;-73
2023/11/09 04:11:49;;;;;;;2.17;1.17;;;;;;;11.89;100.00;100121.34;5259330;28;20489;-73
2023/11/09 04:14:20;;;;;;;4.13;1.45;;;;;;;11.88;100.00;100133.13;5257598;28;20081;-73
2023/11/09 04:16:50;;;;;;;2.33;1.45;;;;;;;11.83;100.00;100140.94;5253901;28;20069;-73
2023/11/09 04:19:21;;;;;;;4.22;1.58;;;;;;;11.90;100.00;100144.53;5251785;28;20035;-73
2023/11/09 04:21:53;;;;;;;5.07;2.08;;;;;;;11.89;100.00;100142.84;5254797;28;20481;-73
2023/11/09 04:24:24;;;;;;;3.58;1.55;;;;;;;11.89;100.00;100155.44;5251698;28;20027;-73
2023/11/09 04:26:54;;;;;;;3.45;1.55;;;;;;;11.87;100.00;100144.06;5252158;28;20047;-73
2023/11/09 04:29:25;;;;;;;8.88;2.88;;;;;;;11.83;100.00;100140.94;5249587;28;20084;-73
2023/11/09 04:31:55;;;;;;;7.38;3.15;;;;;;;11.80;100.00;100141.28;5254783;28;20058;-73
2023/11/09 04:34:26;;;;;;;11.57;3.13;;;;;;;11.62;100.00;100136.34;5260395;28;20452;-73
2023/11/09 04:36:56;;;;;;;9.30;3.60;;;;;;;11.72;100.00;100146.78;5254491;28;20521;-73
2023/11/09 04:39:29;;;;;;;8.15;4.18;;;;;;;11.74;100.00;100138.53;5257349;28;20082;-73
2023/11/09 04:42:08;;;;;;;8.65;3.92;;;;;;;11.73;100.00;100140.38;5253010;28;20024;-73
2023/11/09 04:44:40;;;;;;;12.30;4.20;;;;;;;11.74;100.00;100143.91;5247071;28;20107;-73
2023/11/09 04:47:11;;;;;;;13.50;5.20;;;;;;;11.72;100.00;100146.78;5249854;28;20081;-73
2023/11/09 04:49:45;;;;;;;15.93;5.13;;;;;;;11.64;100.00;100145.03;5251706;28;20032;-73
2023/11/09 04:52:19;;;;;;;12.93;5.60;;;;;;;11.55;100.00;100137.31;5251002;28;20060;-73
2023/11/09 04:55:07;;;;;;;16.02;4.88;;;;;;;11.50;100.00;100129.00;5251104;28;20039;-73
2023/11/09 05:08:54;;;;;;;17.00;6.15;;;;;;;11.41;100.00;100147.91;5264086;28;20408;-73
2023/11/09 05:11:25;;;;;;;16.75;6.43;;;;;;;11.58;100.00;100145.81;5265676;28;20031;-73
2023/11/09 05:13:55;;;;;;;17.05;6.20;;;;;;;11.59;100.00;100150.13;5262676;28;20032;-73
2023/11/09 05:16:26;;;;;;;14.82;5.43;;;;;;;11.56;100.00;100157.78;5256659;28;20533;-73
2023/11/09 05:18:57;;;;;;;15.10;5.80;;;;;;;11.45;100.00;100147.53;5259345;28;20397;-73
2023/11/09 05:21:27;;;;;;;19.00;6.00;;;;;;;11.44;100.00;100151.22;5253960;28;20059;-73
2023/11/09 05:23:57;;;;;;;17.20;6.82;;;;;;;11.39;100.00;100157.97;5260874;28;20028;-73
2023/11/09 05:26:32;;;;;;;17.13;6.68;;;;;;;11.35;100.00;100161.25;5251116;28;20034;-73
2023/11/09 05:29:04;;;;;;;19.10;6.57;;;;;;;11.37;100.00;100168.09;5255735;28;20024;-73
2023/11/09 05:31:35;;;;;;;16.35;6.05;;;;;;;11.36;100.00;100165.59;5259496;28;20024;-73
2023/11/09 05:34:06;;;;;;;21.13;6.15;;;;;;;11.43;100.00;100165.66;5256608;28;20032;-72
2023/11/09 05:36:37;;;;;;;23.88;6.38;;;;;;;11.36;100.00;100166.41;5254927;28;20474;-73
2023/11/09 05:39:10;;;;;;;17.90;6.50;;;;;;;11.36;100.00;100165.59;5255806;28;20103;-73
2023/11/09 05:41:41;;;;;;;18.73;5.72;;;;;;;11.38;100.00;100166.22;5249358;28;20025;-73
2023/11/09 05:44:12;;;;;;;19.83;7.28;;;;;;;11.30;100.00;100169.88;5253704;28;20032;-73
2023/11/09 05:46:42;;;;;;;12.32;5.50;;;;;;;11.32;100.00;100161.63;5252962;28;20025;-73
2023/11/09 05:49:13;;;;;;;22.42;6.05;;;;;;;11.32;100.00;100173.19;5248559;28;20103;-73
2023/11/09 05:51:44;;;;;;;30.63;7.68;;;;;;;11.32;100.00;100175.03;5264614;28;20185;-73
2023/11/09 05:54:15;;;;;;;12.75;5.32;;;;;;;11.27;100.00;100175.59;5264301;28;20381;-73
2023/11/09 05:56:45;;;;;;;14.85;5.45;;;;;;;11.14;100.00;100176.28;5249884;28;20024;-73
2023/11/09 05:59:16;;;;;;;14.65;6.05;;;;;;;11.17;100.00;100180.41;5253768;28;20024;-72
2023/11/09 06:01:47;;;;;;;17.60;5.60;;;;;;;11.16;100.00;100184.13;5264546;28;20430;-73
2023/11/09 06:04:18;;;;;;;16.80;5.95;;;;;;;11.12;100.00;100180.97;5261930;28;20051;-73
2023/11/09 06:06:48;;;;;;;11.25;4.95;;;;;;;11.14;100.00;100175.41;5259547;28;20111;-73
2023/11/09 06:09:19;;;;;;;16.85;5.28;;;;;;;11.18;100.00;100178.56;5252727;28;20020;-73
2023/11/09 06:11:51;;;;;;;18.90;5.82;;;;;;;11.12;100.00;100182.84;5261209;28;20024;-73
2023/11/09 06:14:21;;;;;;;21.35;6.38;;;;;;;10.96;100.00;100185.72;5256479;28;20035;-73
2023/11/09 06:16:52;;;;;;;20.98;6.45;;;;;;;11.02;100.00;100180.44;5246457;28;20028;-73
2023/11/09 06:19:22;;;;;;;24.83;6.60;;;;;;;10.98;100.00;100195.22;5253946;28;20020;-73
2023/11/09 06:21:54;;;;;;;13.98;6.40;;;;;;;10.98;100.00;100197.91;5257928;28;20111;-73
2023/11/09 06:24:24;;;;;;;16.65;6.13;;;;;;;11.02;100.00;100196.53;5253605;28;20023;-73
2023/11/09 06:26:56;;;;;;;21.38;6.78;;;;;;;10.94;100.00;100201.16;5249134;28;20028;-73
2023/11/09 06:29:28;;;;;;;22.40;6.88;;;;;;;10.93;100.00;100211.06;5249499;28;20084;-73
2023/11/09 06:31:58;;;;;;;18.35;6.80;;;;;;;10.91;100.00;100212.28;5254115;28;20060;-73
2023/11/09 06:34:29;;;;;;;17.33;6.53;;;;;;;10.96;100.00;100216.06;5256393;28;20517;-73
2023/11/09 06:37:00;;;;;;;16.75;6.60;;;;;;;10.96;100.00;100202.66;5247829;28;20115;-73
2023/11/09 06:39:30;;;;;;;22.45;6.25;;;;;;;10.93;100.00;100211.06;5248735;28;20036;-73
2023/11/09 06:42:01;;;;;;;19.48;6.45;;;;;;;10.88;100.00;100208.91;5252777;28;20028;-73
2023/11/09 06:44:31;;;;;;;18.55;6.38;;;;;;;10.83;100.00;100216.69;5256283;28;20028;-73
2023/11/09 06:47:02;;;;;;;19.40;7.25;;;;;;;10.91;100.00;100207.72;5252239;28;20485;-73
2023/11/09 06:49:32;;;;;;;20.58;6.18;;;;;;;10.83;100.00;100207.81;5261466;28;20084;-73
2023/11/09 06:52:04;;;;;;;16.02;5.78;;;;;;;10.83;100.00;100210.50;5258089;28;20028;-73
2023/11/09 06:54:35;;;;;;;23.27;7.03;;;;;;;10.79;100.00;100211.88;5249463;28;20079;-73
2023/11/09 06:57:09;;;;;;;17.77;5.15;;;;;;;10.74;100.00;100215.09;5256851;28;20032;-73
2023/11/09 06:59:41;;;;;;;17.33;5.97;;;;;;;10.63;100.00;100219.06;5247586;28;20020;-73
2023/11/09 07:02:12;;;;;;;15.32;5.65;;;;;;;10.62;100.00;100235.34;5245560;28;20043;-73
2023/11/09 07:04:43;;;;;;;17.52;6.20;;;;;;;10.49;100.00;100219.88;5253178;28;20032;-73
2023/11/09 07:07:13;;;;;;;22.67;5.70;;;;;;;10.46;100.00;100222.91;5253288;28;20024;-73
2023/11/09 07:09:44;;;;;;;22.35;6.43;;;;;;;10.35;100.00;100224.16;5249516;28;20558;-73
2023/11/09 07:12:14;;;;;;;23.65;7.22;;;;;;;10.27;100.00;100234.13;5254244;28;20039;-73
2023/11/09 07:14:45;;;;;;;23.45;7.38;;;;;;;10.29;100.00;100229.41;5259393;28;20020;-73
2023/11/09 07:17:17;;;;;;;17.52;7.07;;;;;;;10.27;100.00;100234.94;5249950;28;20142;-73
2023/11/09 07:19:48;;;;;;;30.48;10.63;;;;;;;10.24;100.00;100226.41;5255059;28;20028;-73
2023/11/09 07:22:20;;;;;;;32.15;11.15;;;;;;;10.19;100.00;100232.31;5248813;28;20032;-73
2023/11/09 07:24:53;;;;;;;33.92;7.68;;;;;;;10.20;100.00;100244.69;5255752;28;20495;-73
2023/11/09 07:27:24;;;;;;;21.95;7.10;;;;;;;10.24;100.00;100239.81;5258058;28;20039;-73
2023/11/09 07:29:54;;;;;;;24.17;8.57;;;;;;;10.19;100.00;100244.84;5261404;28;20157;-73
2023/11/09 07:32:26;;;;;;;25.33;8.00;;;;;;;10.20;100.00;100255.41;5253475;28;20024;-72
2023/11/09 07:34:57;;;;;;;25.40;6.82;;;;;;;10.25;100.00;100249.56;5255388;28;20073;-73
2023/11/09 07:37:27;;;;;;;22.90;8.70;;;;;;;10.27;100.00;100243.00;5253885;28;20106;-73
2023/11/09 07:39:58;;;;;;;21.00;7.82;;;;;;;10.18;100.00;100249.38;5255949;28;20039;-73
2023/11/09 07:42:28;;;;;;;22.33;7.00;;;;;;;10.28;100.00;100251.88;5258701;28;20077;-73
2023/11/09 07:44:59;;;;;;;20.83;7.07;;;;;;;10.30;100.00;100253.38;5252971;28;20055;-73
2023/11/09 07:47:29;;;;;;;31.33;7.82;;;;;;;10.27;100.00;100245.69;5256776;28;20024;-73
2023/11/09 07:50:00;;;;;;;28.50;7.78;;;;;;;10.30;100.00;100245.31;5251082;28;20039;-73
2023/11/09 07:52:31;;;;;;;32.25;9.10;;;;;;;10.18;100.00;100251.25;5248274;28;20024;-72
2023/11/09 07:55:04;;;;;;;35.05;7.53;;;;;;;10.22;100.00;100245.34;5250585;28;20036;-73
2023/11/09 07:57:35;;;;;;;26.48;8.65;;;;;;;10.12;100.00;100237.53;5259725;28;20026;-73
2023/11/09 08:00:10;;;;;;;18.60;6.30;;;;;;;10.17;100.00;100237.00;5260043;28;20484;-73
2023/11/09 08:02:41;;;;;;;24.98;6.70;;;;;;;10.34;100.00;100237.75;5257480;28;20366;-73
2023/11/09 08:05:13;;;;;;;27.63;6.75;;;;;;;10.26;100.00;100237.81;5248905;28;20027;-73
2023/11/09 08:07:44;;;;;;;23.55;6.38;;;;;;;10.31;100.00;100232.75;5247171;28;20116;-73
2023/11/09 08:10:14;;;;;;;25.70;6.57;;;;;;;10.40;100.00;100238.91;5246396;28;20741;-73
2023/11/09 08:12:45;;;;;;;37.00;9.30;;;;;;;10.39;100.00;100243.41;5248641;28;20586;-73
2023/11/09 08:15:19;;;;;;;18.70;6.07;;;;;;;10.40;100.00;100239.72;5249986;28;20542;-73
2023/11/09 08:17:49;;;;;;;21.58;6.57;;;;;;;10.49;100.00;100240.47;5246295;28;20026;-73
2023/11/09 08:20:20;;;;;;;24.10;6.47;;;;;;;10.73;100.00;100242.13;5250509;28;20436;-73
2023/11/09 08:22:50;;;;;;;27.83;5.85;;;;;;;11.12;100.00;100248.09;5249431;28;20037;-72
2023/11/09 08:25:22;;;;;;;15.98;5.18;;;;;;;11.29;100.00;100250.59;5245639;28;20028;-73
2023/11/09 08:27:53;;;;;;;25.17;5.88;;;;;;;11.61;100.00;100236.78;5243415;28;20104;-73
2023/11/09 08:30:27;;;;;;;16.23;5.57;;;;;;;11.66;100.00;100241.59;5249855;28;20762;-73
2023/11/09 08:32:57;;;;;;;32.05;5.30;;;;;;;11.52;100.00;100235.22;5250992;28;20032;-73
2023/11/09 08:35:28;;;;;;;23.83;5.20;;;;;;;12.12;100.00;100235.94;5248118;28;20030;-73
2023/11/09 08:38:00;;;;;;;23.05;4.90;;;;;;;12.37;100.00;100239.06;5250630;28;20425;-73
2023/11/09 08:40:30;;;;;;;17.70;4.60;;;;;;;12.61;100.00;100241.38;5249036;28;20660;-73
2023/11/09 08:43:01;;;;;;;12.13;5.30;;;;;;;12.75;100.00;100233.38;5255909;28;20110;-73
2023/11/09 08:45:31;;;;;;;17.95;4.30;;;;;;;12.64;100.00;100232.88;5259245;28;20027;-73
2023/11/09 08:48:02;;;;;;;18.90;5.43;;;;;;;12.35;100.00;100228.53;5263720;28;20110;-73
2023/11/09 08:50:36;;;;;;;20.00;4.95;;;;;;;12.29;100.00;100231.13;5262419;28;20031;-73
2023/11/09 08:53:07;;;;;;;22.20;5.80;;;;;;;12.21;100.00;100221.34;5255012;28;20035;-73
2023/11/09 08:55:39;;;;;;;17.90;5.07;;;;;;;12.16;100.00;100229.97;5262434;28;20118;-73
2023/11/09 08:58:10;;;;;;;18.17;5.10;;;;;;;11.96;100.00;100234.31;5259850;28;20534;-73
2023/11/09 09:00:41;;;;;;;31.67;5.22;;;;;;;12.21;100.00;100237.47;5265437;28;20103;-73
2023/11/09 09:03:11;;;;;;;18.48;4.45;;;;;;;12.30;100.00;100230.94;5261739;28;20111;-73
2023/11/09 09:05:42;;;;;;;17.73;5.30;;;;;;;12.05;100.00;100235.00;5262373;28;20032;-73
2023/11/09 09:08:12;;;;;;;22.65;5.18;;;;;;;12.07;100.00;100233.00;5257228;28;20027;-73
2023/11/09 09:10:43;;;;;;;19.70;4.75;;;;;;;11.98;100.00;100236.81;5253482;28;20036;-73
2023/11/09 09:13:13;;;;;;;94.05;16.23;;;;;;;12.01;100.00;100241.81;5262505;28;20099;-73
2023/11/09 09:15:45;;;;;;;19.13;5.07;;;;;;;12.06;100.00;100237.53;5259015;28;20052;-73
2023/11/09 09:18:16;;;;;;;19.00;4.78;;;;;;;12.39;100.00;100234.31;5247616;28;20078;-73
2023/11/09 09:20:48;;;;;;;20.98;5.15;;;;;;;12.60;100.00;100228.09;5256312;28;20064;-73
2023/11/09 09:23:18;;;;;;;17.63;4.53;;;;;;;13.09;100.00;100225.34;5259748;28;20759;-73
2023/11/09 09:25:49;;;;;;;18.38;4.25;;;;;;;13.26;100.00;100231.28;5255213;28;20162;-73
2023/11/09 09:28:22;;;;;;;15.38;4.28;;;;;;;13.22;100.00;100230.03;5267127;28;20028;-73
2023/11/09 09:30:53;;;;;;;13.93;3.97;;;;;;;13.33;100.00;100237.53;5263098;28;20644;-73
2023/11/09 09:33:23;;;;;;;14.80;4.85;;;;;;;13.16;100.00;100230.78;5256872;28;20027;-73
2023/11/09 09:35:54;;;;;;;18.88;5.07;;;;;;;13.08;100.00;100237.16;5259333;28;20035;-73
2023/11/09 09:38:24;;;;;;;15.55;4.53;;;;;;;13.24;100.00;100229.81;5260804;28;20024;-73
2023/11/09 09:40:55;;;;;;;22.33;4.78;;;;;;;13.30;100.00;100229.84;5256851;28;20052;-73
2023/11/09 09:43:25;;;;;;;19.15;4.90;;;;;;;13.22;100.00;100230.03;5261282;28;20069;-73
2023/11/09 09:45:57;;;;;;;19.70;4.97;;;;;;;13.35;100.00;100231.94;5251641;28;20031;-73
2023/11/09 09:48:28;;;;;;;15.02;3.97;;;;;;;13.34;100.00;100238.38;5258181;28;20015;-73
2023/11/09 09:51:02;;;;;;;13.55;3.90;;;;;;;13.65;100.00;100229.81;5258892;28;20342;-73
2023/11/09 09:53:35;;;;;;;19.10;4.28;;;;;;;13.87;100.00;100236.75;5264879;28;20358;-73
2023/11/09 09:56:07;;;;;;;23.92;4.50;;;;;;;14.03;100.00;100237.41;5253998;28;20032;-73
2023/11/09 09:58:38;;;;;;;19.90;4.22;;;;;;;13.93;100.00;100233.22;5257362;28;20111;-73
2023/11/09 10:01:10;;;;;;;17.15;3.97;;;;;;;13.24;100.00;100230.66;5264484;28;20039;-73
2023/11/09 10:03:41;;;;;;;19.25;3.38;;;;;;;13.20;100.00;100234.72;5255986;28;20103;-72
2023/11/09 10:06:13;;;;;;;10.38;3.17;;;;;;;13.36;100.00;100239.03;5253253;28;20035;-73
2023/11/09 10:08:44;;;;;;;19.08;3.15;;;;;;;13.15;100.00;100240.72;5260877;28;20023;-73
2023/11/09 10:11:15;;;;;;;12.55;2.85;;;;;;;12.88;100.00;100236.19;5257353;28;20499;-73
2023/11/09 10:13:46;;;;;;;20.20;3.47;;;;;;;12.77;100.00;100229.47;5252908;28;20038;-73
2023/11/09 10:16:19;;;;;;;13.45;2.95;;;;;;;12.78;100.00;100230.31;5250683;28;20031;-73
2023/11/09 10:18:51;;;;;;;13.93;3.10;;;;;;;13.01;100.00;100230.91;5243124;28;20032;-73
2023/11/09 10:21:21;;;;;;;18.25;3.53;;;;;;;13.01;100.00;100233.59;5260513;28;20472;-73
2023/11/09 10:23:53;;;;;;;13.45;2.80;;;;;;;12.99;100.00;100230.25;5252566;28;20111;-73
2023/11/09 10:26:39;;;;;;;20.75;3.17;;;;;;;13.15;100.00;100232.66;5256203;28;20020;-73
2023/11/09 10:29:14;;;;;;;12.80;3.63;;;;;;;13.12;100.00;100226.81;5261130;28;20496;-73
2023/11/09 10:31:44;;;;;;;13.13;3.38;;;;;;;13.08;100.00;100228.25;5251070;28;20161;-73
2023/11/09 10:34:16;;;;;;;16.83;3.47;;;;;;;13.26;100.00;100223.22;5250708;28;20107;-73
2023/11/09 10:36:47;;;;;;;14.48;3.47;;;;;;;13.06;100.00;100230.31;5250637;28;20032;-73
2023/11/09 10:39:22;;;;;;;19.73;3.25;;;;;;;13.08;100.00;100221.00;5249319;28;20389;-73
2023/11/09 10:41:54;;;;;;;15.60;3.72;;;;;;;13.04;100.00;100222.41;5255495;28;20024;-73
2023/11/09 10:44:28;;;;;;;17.23;4.22;;;;;;;13.11;100.00;100207.16;5255863;28;20173;-73
2023/11/09 10:46:59;;;;;;;14.07;3.58;;;;;;;13.33;100.00;100215.16;5256778;28;20385;-73
2023/11/09 10:49:32;;;;;;;20.08;4.25;;;;;;;13.53;100.00;100210.69;5255529;28;20020;-73
2023/11/09 10:52:05;;;;;;;20.40;3.80;;;;;;;13.85;100.00;100205.63;5255053;28;20093;-73
2023/11/09 10:54:36;;;;;;;23.48;4.40;;;;;;;13.95;100.00;100203.34;5247550;28;20478;-73
2023/11/09 10:57:09;;;;;;;25.30;4.80;;;;;;;13.95;100.00;100195.28;5255131;28;20028;-73
2023/11/09 10:59:40;;;;;;;18.50;4.68;;;;;;;13.88;100.00;100195.25;5250730;28;20023;-73
2023/11/09 11:02:20;;;;;;;19.70;3.22;;;;;;;13.63;100.00;100188.75;5252777;28;20397;-73
2023/11/09 11:04:55;;;;;;;26.88;3.92;;;;;;;13.80;100.00;100178.44;5255705;28;20031;-73
2023/11/09 11:07:29;;;;;;;21.42;3.75;;;;;;;13.74;100.00;100172.00;5251118;28;20056;-73
2023/11/09 11:10:01;;;;;;;20.58;3.63;;;;;;;13.84;100.00;100174.31;5253994;28;20028;-73
2023/11/09 11:12:32;;;;;;;18.40;3.95;;;;;;;13.88;100.00;100172.88;5259881;28;20096;-73
2023/11/09 11:15:05;;;;;;;19.88;3.60;;;;;;;13.80;100.00;100162.25;5266596;28;20035;-73
2023/11/09 11:17:57;;;;;;;14.93;4.70;;;;;;;14.06;100.00;100148.84;5259805;28;20020;-73
2023/11/09 11:20:54;;;;;;;20.35;2.97;;;;;;;14.10;100.00;100160.03;5258296;28;20030;-73
2023/11/09 11:23:36;;;;;;;15.25;2.88;;;;;;;14.08;100.00;100152.16;5250194;28;20114;-73
2023/11/09 11:26:10;;;;;;;19.60;5.25;;;;;;;14.16;100.00;100151.97;5251690;28;20029;-73
2023/11/09 11:28:41;;;;;;;16.93;3.00;;;;;;;14.05;100.00;100149.03;5258347;28;20039;-73
2023/11/09 11:31:14;;;;;;;19.75;3.80;;;;;;;13.90;100.00;100141.13;5250457;28;20283;-73
2023/11/09 11:33:47;;;;;;;20.35;3.28;;;;;;;13.89;100.00;100136.78;5250971;28;20038;-73
2023/11/09 11:36:26;;;;;;;14.70;3.67;;;;;;;13.59;100.00;100152.47;5254995;28;20394;-73
2023/11/09 11:39:20;;;;;;;14.98;5.38;;;;;;;13.62;100.00;100149.38;5251745;28;20027;-73
2023/11/09 11:41:51;;;;;;;16.27;3.45;;;;;;;13.58;100.00;100132.75;5246721;28;20052;-73
2023/11/09 11:44:23;;;;;;;22.85;3.38;;;;;;;13.51;100.00;100131.09;5253346;28;20024;-73